Time;durP1;ratioP1;P1;durP2;ratioP2;P2;SDS_P1;SDS_P2;PMS_P1;PMS_P2;Temp;Humidity;BMP_temperature;BMP_pressure;BME280_temperature;BME280_humidity;BME280_pressure;Samples;Min_cycle;Max_cycle;Signal;HPM_P1;HPM_P2
2021/05/06 00:33:01;;;;;;;5.07;1.40;;;;;;;7.38;63.57;99434.69;2209456;39;20030;-78
2021/05/06 00:34:33;;;;;;;4.55;1.40;;;;;;;7.40;63.50;99427.41;2193111;39;20076;-78
2021/05/06 00:36:04;;;;;;;6.35;1.42;;;;;;;7.42;63.36;99433.44;2206367;39;20048;-78
2021/05/06 00:37:45;;;;;;;6.40;1.63;;;;;;;7.40;63.42;99432.72;2165332;39;20049;-78
2021/05/06 00:39:20;;;;;;;4.25;1.50;;;;;;;7.38;63.75;99434.69;2204416;39;20086;-78
2021/05/06 00:41:03;;;;;;;3.65;1.33;;;;;;;7.37;64.00;99427.72;2209437;39;20042;-78
2021/05/06 00:42:45;;;;;;;5.75;1.75;;;;;;;7.41;63.84;99434.41;2206733;39;20038;-77
2021/05/06 00:46:25;;;;;;;4.35;1.30;;;;;;;7.52;63.54;99425.44;2208070;39;20050;-78
2021/05/06 00:54:16;;;;;;;4.95;1.83;;;;;;;7.51;63.89;99413.97;2209930;40;20030;-78
2021/05/06 00:56:18;;;;;;;5.70;1.55;;;;;;;7.38;64.15;99413.41;2202140;39;20134;-79
2021/05/06 00:58:02;;;;;;;5.20;1.63;;;;;;;7.32;64.25;99405.03;2206591;40;20062;-79
2021/05/06 01:01:39;;;;;;;4.40;1.58;;;;;;;7.37;64.24;99412.56;2210492;39;20074;-79
2021/05/06 01:03:20;;;;;;;5.00;1.30;;;;;;;7.39;64.17;99409.75;2210196;39;20069;-78
2021/05/06 01:04:53;;;;;;;4.45;1.38;;;;;;;7.36;64.43;99399.44;2210634;39;20022;-79
2021/05/06 01:06:26;;;;;;;5.40;1.63;;;;;;;7.29;64.57;99399.97;2212515;40;20046;-79
2021/05/06 01:08:02;;;;;;;4.85;1.20;;;;;;;7.25;64.54;99403.91;2183232;40;20023;-78
2021/05/06 01:09:37;;;;;;;5.40;1.30;;;;;;;7.26;64.45;99402.94;2211845;39;20068;-78
2021/05/06 01:11:18;;;;;;;6.72;1.40;;;;;;;7.22;64.50;99401.50;2211670;39;20041;-77
2021/05/06 01:12:49;;;;;;;3.10;1.20;;;;;;;7.25;64.52;99406.56;2203184;39;20056;-77
2021/05/06 01:14:20;;;;;;;6.60;1.90;;;;;;;7.27;64.50;99409.94;2210107;39;20033;-78
2021/05/06 01:15:52;;;;;;;4.18;1.50;;;;;;;7.25;64.34;99406.56;2215663;39;20049;-77
2021/05/06 01:17:22;;;;;;;3.67;1.40;;;;;;;7.27;64.28;99404.59;2225366;39;20061;-78
2021/05/06 01:18:54;;;;;;;7.82;1.50;;;;;;;7.34;64.23;99412.84;2209036;39;20302;-78
2021/05/06 01:20:25;;;;;;;5.25;1.20;;;;;;;7.32;64.06;99412.16;2209305;40;20131;-77
2021/05/06 01:21:57;;;;;;;5.28;1.30;;;;;;;7.31;64.18;99413.16;2199698;39;20030;-78
2021/05/06 01:23:30;;;;;;;4.35;1.40;;;;;;;7.26;64.03;99416.22;2241730;39;20063;-78
2021/05/06 01:25:01;;;;;;;4.18;1.10;;;;;;;7.27;64.34;99412.59;2246498;39;20027;-78
2021/05/06 01:26:35;;;;;;;4.97;1.40;;;;;;;7.27;64.17;99414.38;2246373;39;20032;-78
2021/05/06 01:28:09;;;;;;;2.92;1.20;;;;;;;7.26;64.33;99415.38;2205455;39;20429;-78
2021/05/06 01:29:44;;;;;;;3.45;1.27;;;;;;;7.22;64.32;99411.31;2210600;40;20029;-78
2021/05/06 01:31:18;;;;;;;5.35;1.63;;;;;;;7.19;64.35;99404.44;2208967;39;20045;-78
2021/05/06 01:32:52;;;;;;;3.83;1.67;;;;;;;7.21;64.50;99406.97;2209139;40;20030;-77
2021/05/06 01:34:23;;;;;;;7.18;2.25;;;;;;;7.24;64.50;99412.84;2226812;39;20028;-78
2021/05/06 01:35:58;;;;;;;5.78;1.50;;;;;;;7.20;64.36;99406.13;2212874;39;20390;-78
2021/05/06 01:37:34;;;;;;;5.50;1.40;;;;;;;7.22;64.51;99404.16;2173562;39;20052;-78
2021/05/06 01:39:35;;;;;;;5.63;1.45;;;;;;;7.19;64.46;99399.13;2209393;40;20038;-78
2021/05/06 01:41:34;;;;;;;4.22;1.05;;;;;;;7.18;64.52;99397.44;2166832;40;20130;-77
2021/05/06 01:43:08;;;;;;;6.40;1.40;;;;;;;7.24;64.47;99398.69;2190047;40;20035;-78
2021/05/06 01:46:52;;;;;;;4.40;1.42;;;;;;;7.25;64.25;99406.56;2171472;40;20045;-78
2021/05/06 01:48:42;;;;;;;7.07;1.80;;;;;;;7.30;64.23;99396.34;2196871;40;20061;-79
2021/05/06 01:58:31;;;;;;;3.28;1.33;;;;;;;7.16;64.54;99386.13;2221981;40;20040;-77
2021/05/06 02:00:08;;;;;;;3.92;1.52;;;;;;;7.16;64.91;99383.47;2222734;40;20205;-77
2021/05/06 02:01:39;;;;;;;3.90;1.63;;;;;;;7.16;64.68;99380.81;2212173;40;20044;-77
2021/05/06 02:03:10;;;;;;;8.60;1.30;;;;;;;7.15;64.75;99390.59;2209269;39;20364;-78
2021/05/06 02:04:42;;;;;;;4.35;1.38;;;;;;;7.13;64.81;99389.88;2212009;39;20123;-78
2021/05/06 02:06:15;;;;;;;4.53;1.90;;;;;;;7.10;64.87;99399.94;2208051;39;20045;-78
2021/05/06 02:07:47;;;;;;;4.43;1.30;;;;;;;7.10;64.95;99390.19;2209877;40;20456;-76
2021/05/06 02:09:20;;;;;;;5.50;1.92;;;;;;;7.15;64.90;99382.63;2194281;39;20126;-78
2021/05/06 02:10:55;;;;;;;5.40;1.40;;;;;;;7.18;64.72;99382.34;2205870;39;20491;-77
2021/05/06 02:12:26;;;;;;;5.75;1.75;;;;;;;7.18;64.71;99369.06;2199587;39;20049;-79
2021/05/06 02:13:57;;;;;;;5.03;1.63;;;;;;;7.12;64.57;99371.41;2209618;39;20036;-77
2021/05/06 02:15:31;;;;;;;3.67;1.20;;;;;;;7.11;64.87;99378.56;2209441;39;20061;-78
2021/05/06 02:17:03;;;;;;;3.15;1.30;;;;;;;7.15;64.78;99373.81;2209657;39;20033;-78
2021/05/06 02:18:37;;;;;;;3.70;1.13;;;;;;;7.16;64.58;99372.84;2208722;39;20038;-79
2021/05/06 02:20:09;;;;;;;5.20;1.15;;;;;;;7.19;64.64;99377.84;2211163;40;20030;-78
2021/05/06 02:21:40;;;;;;;6.10;2.40;;;;;;;7.18;64.71;99382.34;2207075;39;20109;-78
2021/05/06 02:23:12;;;;;;;5.10;1.20;;;;;;;7.21;64.74;99375.91;2210362;40;20056;-78
2021/05/06 02:24:45;;;;;;;4.13;1.48;;;;;;;7.17;64.73;99359.41;2208889;39;20095;-79
2021/05/06 02:26:16;;;;;;;4.75;1.45;;;;;;;7.18;64.69;99370.84;2209682;39;20450;-78
2021/05/06 02:27:48;;;;;;;5.43;1.60;;;;;;;7.19;64.77;99364.56;2235137;39;20039;-79
2021/05/06 02:29:19;;;;;;;4.78;1.50;;;;;;;7.25;64.61;99361.38;2235368;39;20047;-78
2021/05/06 02:30:50;;;;;;;3.25;1.05;;;;;;;7.26;64.56;99367.50;2211552;39;20429;-78
2021/05/06 02:32:21;;;;;;;4.57;1.65;;;;;;;7.27;64.49;99359.41;2210552;40;20420;-78
2021/05/06 02:33:53;;;;;;;3.22;1.40;;;;;;;7.26;64.42;99351.56;2208946;39;20050;-79
2021/05/06 02:35:24;;;;;;;4.63;1.55;;;;;;;7.26;64.58;99347.09;2209357;40;20041;-78
2021/05/06 02:36:55;;;;;;;4.38;1.48;;;;;;;7.26;64.52;99347.09;2208907;39;20477;-79
2021/05/06 02:38:26;;;;;;;6.22;1.83;;;;;;;7.29;64.39;99345.97;2209187;40;20080;-79
2021/05/06 02:39:58;;;;;;;3.83;1.42;;;;;;;7.29;64.15;99344.13;2208307;39;20453;-78
2021/05/06 02:41:29;;;;;;;6.60;1.65;;;;;;;7.34;64.12;99352.53;2209771;40;20240;-78
2021/05/06 02:43:01;;;;;;;4.65;1.50;;;;;;;7.37;63.85;99334.63;2208408;39;20046;-78
2021/05/06 02:44:35;;;;;;;5.57;1.65;;;;;;;7.34;63.94;99341.06;2210122;40;20175;-78
2021/05/06 02:46:06;;;;;;;5.05;1.23;;;;;;;7.33;63.80;99337.56;2208672;39;20037;-79
2021/05/06 02:47:37;;;;;;;6.03;1.20;;;;;;;7.32;63.86;99337.72;2209869;40;20038;-78
2021/05/06 02:49:08;;;;;;;3.72;1.20;;;;;;;7.33;63.77;99337.56;2211674;39;20034;-78
2021/05/06 02:50:45;;;;;;;5.25;1.80;;;;;;;7.29;63.84;99341.47;2222575;40;20037;-78
2021/05/06 02:52:22;;;;;;;3.67;2.00;;;;;;;7.31;63.86;99339.53;2222216;40;20037;-78
2021/05/06 02:53:54;;;;;;;3.47;1.27;;;;;;;7.37;63.57;99337.28;2213430;40;20400;-79
2021/05/06 02:55:37;;;;;;;5.15;1.33;;;;;;;7.37;63.75;99330.16;2226942;40;20048;-78
2021/05/06 02:57:16;;;;;;;3.25;1.15;;;;;;;7.32;63.69;99319.94;2234589;39;20040;-79
2021/05/06 02:59:00;;;;;;;3.63;1.25;;;;;;;7.33;63.89;99321.63;2216334;40;20059;-79
2021/05/06 03:04:11;;;;;;;3.83;1.35;;;;;;;7.35;63.71;99313.47;2207343;39;20080;-78
2021/05/06 03:05:46;;;;;;;4.45;1.45;;;;;;;7.36;63.65;99309.03;2210385;40;20046;-79
2021/05/06 03:07:21;;;;;;;6.80;1.50;;;;;;;7.38;63.56;99301.72;2235976;39;20047;-78
2021/05/06 03:08:56;;;;;;;5.40;1.50;;;;;;;7.40;63.69;99297.09;2216453;40;20041;-79
2021/05/06 03:12:31;;;;;;;6.00;2.05;;;;;;;7.39;63.52;99285.63;2203878;40;20411;-78
2021/05/06 03:14:25;;;;;;;5.13;1.30;;;;;;;7.40;63.23;99282.00;2213395;40;20043;-79
2021/05/06 03:23:12;;;;;;;4.78;1.80;;;;;;;7.26;63.22;99293.91;2199373;40;20104;-78
2021/05/06 03:24:46;;;;;;;4.28;1.75;;;;;;;7.31;63.14;99296.97;2218588;39;20045;-79
2021/05/06 03:26:18;;;;;;;5.63;1.42;;;;;;;7.30;63.10;99303.28;2210157;40;20433;-79
2021/05/06 03:27:53;;;;;;;4.53;1.33;;;;;;;7.29;63.14;99304.25;2209090;39;20049;-78
2021/05/06 03:29:28;;;;;;;4.78;1.40;;;;;;;7.26;63.33;99299.25;2205107;39;20026;-79
2021/05/06 03:31:12;;;;;;;4.93;1.40;;;;;;;7.21;63.27;99304.13;2206301;39;20134;-78
2021/05/06 03:32:57;;;;;;;4.40;1.27;;;;;;;7.21;63.08;99300.63;2209312;40;20384;-78
2021/05/06 03:42:02;;;;;;;3.30;1.20;;;;;;;7.25;62.20;99292.25;2208174;39;20053;-78
2021/05/06 03:43:44;;;;;;;5.53;1.67;;;;;;;7.27;61.85;99295.59;2234591;40;20045;-78
2021/05/06 03:45:49;;;;;;;6.03;1.70;;;;;;;7.31;62.05;99296.97;2229386;39;20049;-79
2021/05/06 03:49:37;;;;;;;4.65;2.08;;;;;;;7.33;61.65;99302.16;2211962;39;20035;-78
2021/05/06 04:14:22;;;;;;;5.43;1.50;;;;;;;7.49;60.25;99304.22;2208181;39;20037;-79
2021/05/06 04:15:41;;;;;;;3.33;1.30;;;;;;;7.51;60.20;99306.75;2205459;39;20053;-78
2021/05/06 04:17:24;;;;;;;6.53;1.60;;;;;;;7.52;60.12;99309.28;2219438;39;20070;-79
2021/05/06 04:18:58;;;;;;;4.22;1.52;;;;;;;7.54;60.00;99307.31;2208712;39;20098;-78
2021/05/06 04:26:16;;;;;;;6.90;1.30;;;;;;;7.50;60.07;99311.22;2209662;40;20054;-78
2021/05/06 04:27:53;;;;;;;5.15;2.28;;;;;;;7.53;60.28;99310.09;2209355;39;20108;-78
2021/05/06 04:29:59;;;;;;;5.30;1.20;;;;;;;7.56;60.10;99315.13;2209981;40;20062;-78
2021/05/06 04:35:38;;;;;;;8.27;1.70;;;;;;;7.48;60.69;99310.53;2177143;40;20032;-78
2021/05/06 04:37:09;;;;;;;4.47;1.27;;;;;;;7.48;60.53;99321.16;2192034;40;20050;-78
2021/05/06 04:38:40;;;;;;;6.38;1.67;;;;;;;7.50;60.71;99316.53;2179187;40;20148;-78
2021/05/06 04:40:16;;;;;;;7.20;2.38;;;;;;;7.52;60.82;99313.72;2167765;41;20393;-77
2021/05/06 04:41:53;;;;;;;7.47;1.70;;;;;;;7.53;60.94;99321.59;2168901;41;20059;-77
2021/05/06 04:54:38;;;;;;;5.82;1.75;;;;;;;7.29;64.58;99322.88;2214947;40;20037;-77
2021/05/06 04:56:20;;;;;;;5.30;1.70;;;;;;;7.26;64.85;99327.63;2213098;40;20037;-78
2021/05/06 04:58:03;;;;;;;5.32;2.13;;;;;;;7.24;65.10;99330.44;2208278;40;20415;-77
2021/05/06 05:05:03;;;;;;;6.63;1.73;;;;;;;7.28;65.32;99310.53;2196597;40;20462;-78
2021/05/06 05:06:37;;;;;;;4.82;1.50;;;;;;;7.36;65.17;99304.53;2196351;40;20100;-78
2021/05/06 05:08:11;;;;;;;6.93;1.95;;;;;;;7.33;65.09;99310.97;2198499;40;20051;-78
2021/05/06 05:11:40;;;;;;;6.38;2.20;;;;;;;7.38;65.09;99313.22;2185097;40;20581;-78
2021/05/06 05:13:31;;;;;;;6.78;1.73;;;;;;;7.38;64.97;99317.66;2204474;40;20398;-78
2021/05/06 05:18:52;;;;;;;5.97;1.73;;;;;;;7.39;64.68;99316.69;2168453;40;20272;-79
2021/05/06 05:20:24;;;;;;;4.95;1.60;;;;;;;7.34;64.79;99311.81;2186059;40;20058;-78
2021/05/06 05:23:47;;;;;;;8.10;2.00;;;;;;;7.36;64.64;99307.19;2194702;40;20447;-79
2021/05/06 05:25:22;;;;;;;6.45;1.90;;;;;;;7.37;64.63;99308.03;2200132;40;20031;-79
2021/05/06 05:26:54;;;;;;;8.27;2.05;;;;;;;7.41;64.49;99302.31;2215032;40;20042;-77
2021/05/06 05:28:25;;;;;;;12.43;1.92;;;;;;;7.44;64.55;99301.16;2199726;40;20392;-79
2021/05/06 05:29:57;;;;;;;10.40;2.55;;;;;;;7.45;64.33;99313.50;2198809;40;20027;-78
2021/05/06 05:31:28;;;;;;;9.52;1.92;;;;;;;7.46;64.30;99307.19;2197178;40;20053;-78
2021/05/06 05:32:59;;;;;;;4.95;1.42;;;;;;;7.46;64.03;99299.22;2198429;40;20259;-78
2021/05/06 05:34:35;;;;;;;7.28;2.25;;;;;;;7.48;63.99;99298.06;2197853;40;20043;-78
2021/05/06 05:36:14;;;;;;;6.18;2.35;;;;;;;7.54;64.05;99293.16;2198456;40;20059;-78
2021/05/06 05:37:48;;;;;;;9.38;1.88;;;;;;;7.57;63.97;99288.38;2168744;40;20031;-78
2021/05/06 05:39:25;;;;;;;7.80;2.75;;;;;;;7.54;63.88;99288.69;2193865;40;20131;-78
2021/05/06 05:41:06;;;;;;;8.93;2.42;;;;;;;7.54;63.90;99278.06;2193633;40;20097;-79
2021/05/06 05:42:56;;;;;;;;;;;;;;;7.51;64.03;99285.47;2193864;40;20043;-78
2021/05/06 05:55:42;;;;;;;8.45;2.30;;;;;;;7.91;63.08;99287.00;2197777;40;20042;-78
2021/05/06 05:57:13;;;;;;;5.55;1.73;;;;;;;7.89;63.04;99281.84;2202953;39;20575;-78
2021/05/06 05:58:45;;;;;;;9.25;2.10;;;;;;;7.87;63.19;99277.66;2204015;40;20035;-78
2021/05/06 06:00:17;;;;;;;6.63;1.98;;;;;;;7.94;63.10;99276.09;2228708;40;20716;-78
2021/05/06 06:01:48;;;;;;;4.43;1.38;;;;;;;8.10;62.71;99281.59;2203475;40;20065;-78
2021/05/06 06:03:19;;;;;;;6.55;1.60;;;;;;;8.19;62.53;99279.03;2202720;39;20395;-78
2021/05/06 06:04:51;;;;;;;5.72;2.20;;;;;;;8.25;62.45;99273.97;2203345;40;20397;-78
2021/05/06 06:06:23;;;;;;;7.40;2.28;;;;;;;8.22;62.18;99268.09;2206622;39;20084;-78
2021/05/06 06:07:54;;;;;;;9.40;2.85;;;;;;;8.23;62.36;99283.09;2211628;40;20430;-78
2021/05/06 06:09:26;;;;;;;8.77;2.47;;;;;;;8.18;62.44;99272.91;2201204;39;20381;-78
2021/05/06 06:10:56;;;;;;;11.00;2.83;;;;;;;8.19;62.59;99274.56;2203771;40;20477;-77
2021/05/06 06:12:28;;;;;;;5.18;2.08;;;;;;;8.18;62.53;99288.88;2203408;40;20038;-77
2021/05/06 06:14:04;;;;;;;6.70;1.90;;;;;;;8.18;62.56;99288.88;2204901;39;20421;-77
2021/05/06 06:15:53;;;;;;;8.82;2.20;;;;;;;8.16;62.55;99290.84;2188395;40;20061;-77
2021/05/06 06:17:24;;;;;;;8.02;2.28;;;;;;;8.12;62.78;99284.97;2214577;39;20073;-78
2021/05/06 06:18:57;;;;;;;9.13;2.05;;;;;;;8.13;62.86;99291.13;2201408;40;20035;-78
2021/05/06 06:20:34;;;;;;;10.95;2.58;;;;;;;8.14;62.65;99283.97;2207097;40;20070;-78
2021/05/06 06:22:09;;;;;;;7.82;2.17;;;;;;;8.13;63.22;99283.13;2232260;40;20044;-78
2021/05/06 06:23:41;;;;;;;6.18;1.60;;;;;;;8.11;63.16;99283.28;2232211;40;20024;-78
2021/05/06 06:25:12;;;;;;;4.53;1.67;;;;;;;8.08;63.17;99280.09;2229165;40;20037;-78
2021/05/06 06:26:43;;;;;;;6.43;1.52;;;;;;;8.05;63.09;99280.38;2230862;40;20332;-77
2021/05/06 06:28:14;;;;;;;6.00;1.50;;;;;;;8.02;63.29;99278.03;2228904;39;20416;-77
2021/05/06 06:29:45;;;;;;;5.35;2.15;;;;;;;8.00;63.33;99286.13;2219156;40;20064;-78
2021/05/06 06:31:20;;;;;;;7.47;1.80;;;;;;;8.01;63.33;99274.50;2202737;39;20605;-78
2021/05/06 06:32:53;;;;;;;3.60;1.40;;;;;;;7.95;63.55;99272.44;2203917;40;20027;-78
2021/05/06 06:34:24;;;;;;;4.40;1.98;;;;;;;7.92;63.64;99265.59;2201941;39;20038;-78
2021/05/06 06:35:55;;;;;;;5.68;2.17;;;;;;;7.91;63.58;99265.72;2203639;40;20365;-78
2021/05/06 06:37:27;;;;;;;6.68;2.22;;;;;;;7.97;63.90;99270.47;2213979;39;20057;-78
2021/05/06 06:38:59;;;;;;;5.30;1.70;;;;;;;8.08;63.75;99264.94;2204360;40;20039;-78
2021/05/06 06:40:29;;;;;;;5.63;2.20;;;;;;;8.15;63.59;99257.19;2202845;39;20053;-78
2021/05/06 06:42:01;;;;;;;4.63;2.40;;;;;;;8.21;63.46;99261.09;2202737;40;20077;-78
2021/05/06 06:43:34;;;;;;;8.57;2.00;;;;;;;8.26;63.32;99259.66;2208636;39;20439;-77
2021/05/06 06:45:07;;;;;;;10.32;2.10;;;;;;;8.27;63.46;99261.34;2210179;40;20468;-78
2021/05/06 06:46:38;;;;;;;6.15;2.20;;;;;;;8.24;63.25;99251.00;2236943;39;20040;-78
2021/05/06 06:48:11;;;;;;;6.03;2.00;;;;;;;8.28;63.46;99255.03;2215595;39;20034;-78
2021/05/06 06:49:48;;;;;;;5.53;1.98;;;;;;;8.36;63.36;99250.78;2211342;39;20046;-78
2021/05/06 06:51:19;;;;;;;13.02;2.85;;;;;;;8.32;63.67;99254.72;2194528;39;20026;-78
2021/05/06 06:52:51;;;;;;;6.82;2.70;;;;;;;8.35;63.63;99251.78;2245235;39;20047;-78
2021/05/06 06:54:25;;;;;;;5.60;2.10;;;;;;;8.31;63.97;99250.41;2234917;39;20026;-78
2021/05/06 06:55:56;;;;;;;4.68;1.80;;;;;;;8.22;64.02;99244.97;2218675;40;20069;-78
2021/05/06 06:57:27;;;;;;;4.32;1.67;;;;;;;8.24;64.30;99250.16;2214048;39;20038;-78
2021/05/06 06:58:59;;;;;;;6.13;2.33;;;;;;;8.31;64.27;99247.75;2222199;39;20037;-78
2021/05/06 07:00:29;;;;;;;8.38;2.10;;;;;;;8.33;64.22;99238.63;2232749;40;20072;-78
2021/05/06 07:02:01;;;;;;;6.75;2.47;;;;;;;8.32;64.38;99242.25;2214173;39;20050;-78
2021/05/06 07:03:32;;;;;;;7.15;2.25;;;;;;;8.33;64.32;99237.75;2208595;39;20042;-78
2021/05/06 07:05:04;;;;;;;5.80;2.38;;;;;;;8.40;64.42;99242.34;2213865;39;20061;-78
2021/05/06 07:06:35;;;;;;;7.82;2.35;;;;;;;8.52;64.10;99237.66;2208536;39;20333;-78
2021/05/06 07:08:19;;;;;;;5.65;1.80;;;;;;;8.58;63.70;99241.53;2210449;40;20030;-78
2021/05/06 07:09:50;;;;;;;6.63;2.10;;;;;;;8.58;63.55;99238.88;2212285;39;20064;-78
2021/05/06 07:11:21;;;;;;;5.22;1.48;;;;;;;8.64;63.41;99235.63;2214082;40;20062;-78
2021/05/06 07:12:52;;;;;;;6.43;2.20;;;;;;;8.70;63.33;99232.34;2208249;39;20046;-78
2021/05/06 07:14:24;;;;;;;5.15;1.83;;;;;;;8.69;63.33;99238.66;2209761;40;20041;-78
2021/05/06 07:15:58;;;;;;;5.18;2.10;;;;;;;8.72;63.41;99229.53;2208189;39;20317;-78
2021/05/06 07:17:29;;;;;;;7.35;2.38;;;;;;;8.79;63.40;99240.41;2209929;39;20050;-78
2021/05/06 07:19:00;;;;;;;6.68;3.40;;;;;;;8.78;63.10;99228.94;2228525;40;20037;-78
2021/05/06 07:20:32;;;;;;;7.57;3.63;;;;;;;8.77;63.46;99229.91;2203601;40;20046;-78
2021/05/06 07:22:04;;;;;;;8.18;3.17;;;;;;;8.78;63.47;99223.59;2213508;40;20124;-78
2021/05/06 07:23:36;;;;;;;6.55;2.97;;;;;;;8.84;63.25;99228.31;2203799;40;20035;-78
2021/05/06 07:25:07;;;;;;;7.07;2.60;;;;;;;8.77;63.37;99235.25;2195930;39;20416;-78
2021/05/06 07:26:39;;;;;;;5.90;1.92;;;;;;;8.78;63.42;99228.94;2206952;40;20059;-78
2021/05/06 07:28:12;;;;;;;8.00;1.90;;;;;;;8.80;63.44;99224.25;2209369;39;20139;-78
2021/05/06 07:29:43;;;;;;;5.47;2.28;;;;;;;8.83;63.55;99229.28;2210572;40;20034;-78
2021/05/06 07:31:14;;;;;;;8.90;2.40;;;;;;;8.80;63.50;99224.25;2200253;40;20436;-78
2021/05/06 07:32:45;;;;;;;5.15;1.67;;;;;;;8.76;63.62;99228.25;2208399;40;20054;-78
2021/05/06 07:34:17;;;;;;;9.15;2.50;;;;;;;8.77;64.07;99216.59;2209133;39;20102;-78
2021/05/06 07:35:48;;;;;;;4.93;2.20;;;;;;;8.78;64.11;99215.59;2210828;40;20083;-77
2021/05/06 07:37:19;;;;;;;6.22;2.20;;;;;;;8.72;64.33;99216.19;2210407;39;20058;-78
2021/05/06 07:38:52;;;;;;;6.43;2.25;;;;;;;8.72;64.47;99216.19;2210701;40;20049;-79
2021/05/06 07:40:24;;;;;;;6.15;2.22;;;;;;;8.79;64.61;99211.09;2207144;39;20388;-78
2021/05/06 07:41:55;;;;;;;4.22;1.73;;;;;;;8.82;64.47;99216.13;2210465;40;20038;-78
2021/05/06 07:43:27;;;;;;;5.90;1.85;;;;;;;8.77;64.60;99216.59;2209072;39;20385;-79
2021/05/06 07:44:58;;;;;;;5.82;1.95;;;;;;;8.77;64.65;99213.94;2210445;40;20501;-78
2021/05/06 07:46:29;;;;;;;7.65;2.60;;;;;;;8.77;64.71;99221.91;2209197;39;20038;-79
2021/05/06 07:48:01;;;;;;;7.15;2.97;;;;;;;8.60;65.14;99218.25;2210286;39;20049;-78
2021/05/06 07:49:32;;;;;;;6.25;2.50;;;;;;;8.50;65.36;99226.31;2209311;39;20049;-78
2021/05/06 07:51:04;;;;;;;7.05;2.55;;;;;;;8.45;65.84;99233.06;2210589;40;20037;-78
2021/05/06 07:52:35;;;;;;;5.20;1.98;;;;;;;8.39;65.94;99231.84;2234308;39;20355;-78
2021/05/06 07:54:09;;;;;;;6.97;1.80;;;;;;;8.37;65.97;99228.50;2218243;39;20345;-79
2021/05/06 07:55:41;;;;;;;6.78;2.40;;;;;;;8.35;66.49;99228.66;2222366;39;20423;-78
2021/05/06 07:57:12;;;;;;;7.78;3.22;;;;;;;8.38;66.42;99230.16;2218806;39;20400;-78
2021/05/06 07:58:44;;;;;;;8.55;2.60;;;;;;;8.37;66.40;99218.66;2209721;40;20038;-78
2021/05/06 08:00:18;;;;;;;5.90;2.58;;;;;;;8.26;66.35;99219.72;2208957;39;20037;-78
2021/05/06 08:01:50;;;;;;;7.55;3.63;;;;;;;8.22;66.61;99218.34;2210309;40;20041;-78
2021/05/06 08:03:21;;;;;;;7.30;3.53;;;;;;;8.24;66.95;99219.03;2207392;39;20049;-78
2021/05/06 08:04:53;;;;;;;6.00;2.63;;;;;;;8.28;66.96;99215.09;2210244;40;20118;-78
2021/05/06 08:06:24;;;;;;;9.77;4.18;;;;;;;8.38;67.20;99230.16;2209416;39;20558;-78
2021/05/06 08:07:55;;;;;;;7.05;3.13;;;;;;;8.39;66.99;99221.19;2209621;39;20115;-78
2021/05/06 08:09:27;;;;;;;5.22;2.25;;;;;;;8.40;66.98;99218.38;2208768;39;20417;-78
2021/05/06 08:11:00;;;;;;;10.05;2.75;;;;;;;8.44;66.68;99213.56;2210780;40;20041;-79
2021/05/06 08:12:30;;;;;;;7.22;2.45;;;;;;;8.47;66.90;99221.31;2206847;39;20085;-78
2021/05/06 08:14:02;;;;;;;5.97;2.40;;;;;;;8.49;66.51;99214.00;2210242;40;20041;-78
2021/05/06 08:15:33;;;;;;;4.93;2.03;;;;;;;8.47;66.25;99217.75;2208642;39;20057;-78
2021/05/06 08:17:05;;;;;;;8.70;2.67;;;;;;;8.52;66.21;99215.53;2204627;40;20035;-78
2021/05/06 08:18:36;;;;;;;5.82;2.15;;;;;;;8.56;66.10;99212.41;2209354;39;20042;-79
2021/05/06 08:20:11;;;;;;;7.65;2.10;;;;;;;8.58;65.99;99207.78;2210234;40;20038;-78
2021/05/06 08:21:42;;;;;;;4.65;1.92;;;;;;;8.64;65.87;99211.66;2208713;39;20070;-78
2021/05/06 08:23:14;;;;;;;7.75;1.80;;;;;;;8.78;65.81;99206.75;2209781;40;20345;-78
2021/05/06 08:24:46;;;;;;;8.32;2.42;;;;;;;8.80;65.65;99208.28;2208608;39;20061;-78
2021/05/06 08:26:17;;;;;;;6.82;2.08;;;;;;;8.82;65.78;99208.97;2210427;40;20041;-77
2021/05/06 08:27:49;;;;;;;8.90;2.40;;;;;;;8.77;65.60;99203.25;2208821;39;20042;-79
2021/05/06 08:29:21;;;;;;;5.90;1.95;;;;;;;8.75;65.29;99205.25;2210341;40;20038;-78
2021/05/06 08:30:52;;;;;;;5.13;1.63;;;;;;;8.72;65.30;99208.19;2208971;39;20061;-78
2021/05/06 08:32:23;;;;;;;6.05;1.80;;;;;;;8.79;65.41;99208.44;2209928;40;20030;-78
2021/05/06 08:33:55;;;;;;;9.00;2.40;;;;;;;8.87;65.37;99206.69;2208909;39;20049;-78
2021/05/06 08:35:26;;;;;;;6.90;2.15;;;;;;;8.94;65.51;99209.53;2215514;39;20102;-78
2021/05/06 08:36:57;;;;;;;7.47;2.50;;;;;;;8.98;65.21;99215.41;2209653;39;20050;-78
2021/05/06 08:38:28;;;;;;;7.20;2.10;;;;;;;8.97;65.23;99213.75;2210278;40;20034;-78
2021/05/06 08:40:02;;;;;;;9.07;2.03;;;;;;;9.01;65.10;99215.09;2208577;39;20049;-78
2021/05/06 08:41:33;;;;;;;10.02;1.90;;;;;;;9.04;65.12;99207.63;2209865;40;20038;-78
2021/05/06 08:43:07;;;;;;;7.15;2.30;;;;;;;9.09;65.06;99201.81;2196082;40;20458;-78
2021/05/06 08:44:40;;;;;;;8.45;2.20;;;;;;;9.12;64.75;99198.84;2203728;40;20067;-78
2021/05/06 08:46:12;;;;;;;7.00;3.10;;;;;;;9.16;64.70;99205.53;2192204;40;20748;-79
2021/05/06 08:47:45;;;;;;;8.10;2.40;;;;;;;9.21;64.38;99194.41;2221983;40;20029;-78
2021/05/06 08:49:17;;;;;;;5.35;2.42;;;;;;;9.19;64.28;99202.56;2226948;39;20125;-78
2021/05/06 08:50:49;;;;;;;6.05;2.13;;;;;;;9.15;64.14;99201.22;2229547;40;20044;-78
2021/05/06 08:52:21;;;;;;;8.05;2.45;;;;;;;9.16;64.29;99208.19;2227324;39;20063;-79
2021/05/06 08:53:53;;;;;;;5.80;2.15;;;;;;;9.18;64.48;99216.88;2232835;40;20021;-79
2021/05/06 08:55:25;;;;;;;6.75;2.50;;;;;;;9.18;64.39;99206.22;2225867;39;20490;-79
2021/05/06 08:56:58;;;;;;;6.35;2.22;;;;;;;9.23;64.75;99207.59;2229759;40;20033;-79
2021/05/06 08:58:29;;;;;;;7.13;2.17;;;;;;;9.27;64.46;99216.94;2230351;40;20036;-79
2021/05/06 09:00:00;;;;;;;8.10;2.08;;;;;;;9.23;64.29;99212.94;2230072;40;20060;-78
2021/05/06 09:01:32;;;;;;;9.00;2.60;;;;;;;9.19;64.42;99218.56;2230248;40;20042;-79
2021/05/06 09:03:04;;;;;;;7.20;2.13;;;;;;;9.20;64.24;99220.25;2230287;40;20393;-79
2021/05/06 09:04:35;;;;;;;8.18;2.50;;;;;;;9.18;64.45;99219.56;2229114;39;20047;-79
2021/05/06 09:06:11;;;;;;;7.10;2.22;;;;;;;9.20;64.53;99217.56;2230288;40;20352;-79
2021/05/06 09:07:43;;;;;;;12.13;3.63;;;;;;;9.25;64.45;99226.94;2228292;40;20049;-79
2021/05/06 09:09:17;;;;;;;9.27;4.38;;;;;;;9.20;64.43;99219.41;2234951;39;20044;-79
2021/05/06 09:10:50;;;;;;;14.18;5.05;;;;;;;9.22;64.49;99214.75;2233370;40;20040;-79
2021/05/06 09:12:36;;;;;;;9.45;4.57;;;;;;;9.25;64.44;99216.28;2210274;39;20041;-79
2021/05/06 09:14:09;;;;;;;9.45;5.22;;;;;;;9.32;64.37;99217.31;2216939;40;20034;-79
2021/05/06 09:15:47;;;;;;;7.82;3.75;;;;;;;9.32;64.28;99217.31;2223489;39;20056;-79
2021/05/06 09:17:26;;;;;;;7.32;2.55;;;;;;;9.25;63.55;99213.63;2224365;40;20337;-78
2021/05/06 09:19:03;;;;;;;6.28;2.50;;;;;;;9.17;63.91;99215.22;2225385;39;20045;-79
2021/05/06 09:20:41;;;;;;;7.20;2.15;;;;;;;9.17;63.84;99207.22;2234026;40;20041;-79
2021/05/06 09:22:12;;;;;;;4.47;1.88;;;;;;;9.19;63.64;99221.22;2229903;39;20270;-79
2021/05/06 09:23:43;;;;;;;6.93;2.72;;;;;;;9.29;63.84;99206.97;2231104;40;20028;-79
2021/05/06 09:25:29;;;;;;;10.55;2.85;;;;;;;9.33;63.76;99205.66;2229389;39;20040;-79
2021/05/06 09:27:02;;;;;;;7.47;2.28;;;;;;;9.41;63.65;99204.84;2224887;40;20029;-79
2021/05/06 09:28:35;;;;;;;11.32;2.78;;;;;;;9.47;63.55;99209.56;2226817;39;20048;-79
2021/05/06 09:30:11;;;;;;;6.47;2.75;;;;;;;9.42;63.55;99207.38;2224051;40;20039;-79
2021/05/06 09:33:14;;;;;;;6.57;2.10;;;;;;;9.43;63.59;99205.53;2185801;39;20069;-78
2021/05/06 09:34:48;;;;;;;9.20;3.28;;;;;;;9.46;63.21;99203.38;2225395;40;20031;-78
2021/05/06 09:36:20;;;;;;;6.90;1.83;;;;;;;9.48;63.28;99200.59;2228687;40;20831;-78
2021/05/06 09:37:51;;;;;;;5.43;2.25;;;;;;;9.44;63.25;99199.22;2216629;40;20041;-78
2021/05/06 09:39:27;;;;;;;5.60;1.90;;;;;;;9.42;63.44;99207.38;2225780;39;20028;-79
2021/05/06 09:41:01;;;;;;;7.28;2.08;;;;;;;9.38;63.29;99210.53;2223658;40;20033;-78
2021/05/06 09:42:38;;;;;;;4.80;1.70;;;;;;;9.38;62.95;99207.84;2212848;40;20053;-79
2021/05/06 09:44:12;;;;;;;10.38;2.15;;;;;;;9.43;63.33;99198.38;2221048;40;20049;-79
2021/05/06 09:45:43;;;;;;;16.58;3.08;;;;;;;9.50;63.21;99202.09;2204089;40;20616;-80
2021/05/06 09:47:15;;;;;;;15.82;3.42;;;;;;;9.48;62.87;99201.41;2198496;40;20043;-79
2021/05/06 09:48:53;;;;;;;10.43;2.88;;;;;;;9.48;63.10;99201.41;2195910;39;20041;-79
2021/05/06 09:50:25;;;;;;;9.05;2.40;;;;;;;9.50;62.96;99199.41;2194310;40;20112;-79
2021/05/06 09:51:58;;;;;;;6.72;2.10;;;;;;;9.51;62.97;99197.56;2211476;39;20039;-79
2021/05/06 09:53:31;;;;;;;11.05;2.90;;;;;;;9.54;62.83;99191.13;2203062;40;20066;-80